Time;durP1;ratioP1;P1;durP2;ratioP2;P2;SDS_P1;SDS_P2;PMS_P1;PMS_P2;Temp;Humidity;BMP_temperature;BMP_pressure;BME280_temperature;BME280_humidity;BME280_pressure;Samples;Min_cycle;Max_cycle;Signal;HPM_P1;HPM_P2
2022/10/05 00:00:12;;;;;;;4.43;4.03;;;;;;;;;;4989778;28;20187;-53
2022/10/05 00:02:38;;;;;;;6.03;4.43;;;;;;;;;;4990297;28;20538;-54
2022/10/05 00:05:19;;;;;;;4.90;4.50;;;;;;;;;;4991310;28;20180;-54
2022/10/05 00:07:45;;;;;;;4.90;4.23;;;;;;;;;;4991744;28;20210;-54
2022/10/05 00:10:14;;;;;;;4.77;4.37;;;;;;;;;;4991957;28;20194;-54
2022/10/05 00:12:40;;;;;;;5.10;4.57;;;;;;;;;;4991652;28;20190;-56
2022/10/05 00:15:09;;;;;;;5.37;4.50;;;;;;;;;;4990759;28;20761;-53
2022/10/05 00:17:35;;;;;;;4.97;4.53;;;;;;;;;;4988826;28;20458;-54
2022/10/05 00:20:03;;;;;;;5.07;4.23;;;;;;;;;;4989431;28;20567;-54
2022/10/05 00:22:30;;;;;;;4.43;4.13;;;;;;;;;;4998629;28;20634;-54
2022/10/05 00:24:58;;;;;;;5.03;4.30;;;;;;;;;;4991122;28;20233;-55
2022/10/05 00:27:26;;;;;;;5.03;4.53;;;;;;;;;;4990633;28;20179;-54
2022/10/05 00:29:53;;;;;;;5.10;4.47;;;;;;;;;;4989436;28;20194;-53
2022/10/05 00:32:19;;;;;;;4.80;4.30;;;;;;;;;;4989662;28;20680;-55
2022/10/05 00:34:46;;;;;;;4.70;4.30;;;;;;;;;;4990204;28;20566;-55
2022/10/05 00:37:13;;;;;;;4.30;3.90;;;;;;;;;;4990888;28;20199;-54
2022/10/05 00:39:40;;;;;;;4.83;4.33;;;;;;;;;;4990635;28;20262;-52
2022/10/05 00:42:41;;;;;;;4.63;4.20;;;;;;;;;;4989651;28;20190;-54
2022/10/05 00:45:10;;;;;;;5.30;4.47;;;;;;;;;;4933281;28;20784;-54
2022/10/05 00:48:01;;;;;;;4.63;4.23;;;;;;;;;;4959208;28;20682;-54
2022/10/05 00:50:36;;;;;;;4.43;4.07;;;;;;;;;;4983147;28;20175;-54
2022/10/05 00:53:02;;;;;;;4.20;3.90;;;;;;;;;;4997692;28;20238;-54
2022/10/05 00:55:35;;;;;;;6.00;4.60;;;;;;;;;;4994910;28;20214;-53
2022/10/05 00:58:14;;;;;;;4.30;3.90;;;;;;;;;;4991026;28;20194;-53
2022/10/05 01:00:46;;;;;;;4.90;4.40;;;;;;;;;;4988639;28;20744;-54
2022/10/05 01:03:25;;;;;;;5.07;4.67;;;;;;;;;;4989973;28;20740;-54
2022/10/05 01:05:59;;;;;;;4.73;4.33;;;;;;;;;;4989022;28;20214;-54
2022/10/05 01:08:28;;;;;;;4.80;4.40;;;;;;;;;;4988943;28;20202;-53
2022/10/05 01:10:59;;;;;;;5.10;4.70;;;;;;;;;;4990027;28;20339;-54
2022/10/05 01:13:37;;;;;;;5.10;4.63;;;;;;;;;;4989489;28;20175;-54
2022/10/05 01:16:11;;;;;;;4.47;4.07;;;;;;;;;;4999194;28;20238;-55
2022/10/05 01:18:41;;;;;;;5.50;4.80;;;;;;;;;;4992700;28;20187;-54
2022/10/05 01:21:10;;;;;;;4.60;4.20;;;;;;;;;;4989285;28;20178;-54
2022/10/05 01:23:55;;;;;;;4.93;4.13;;;;;;;;;;4998345;28;20179;-54
2022/10/05 01:26:33;;;;;;;5.03;4.63;;;;;;;;;;4996489;28;20179;-54
2022/10/05 01:28:59;;;;;;;5.93;4.50;;;;;;;;;;4988446;28;20179;-53
2022/10/05 01:31:34;;;;;;;4.30;4.00;;;;;;;;;;4991243;28;20237;-54
2022/10/05 01:34:18;;;;;;;4.80;4.10;;;;;;;;;;4989364;28;20641;-54
2022/10/05 01:36:50;;;;;;;4.20;3.87;;;;;;;;;;4989003;28;20183;-55
2022/10/05 01:39:33;;;;;;;4.60;4.20;;;;;;;;;;4989419;28;20650;-54
2022/10/05 01:42:11;;;;;;;4.27;3.97;;;;;;;;;;5001274;28;20172;-54
2022/10/05 01:44:47;;;;;;;4.43;4.00;;;;;;;;;;4988925;28;20195;-54
2022/10/05 01:47:20;;;;;;;5.83;4.33;;;;;;;;;;4972341;28;20226;-54
2022/10/05 01:49:55;;;;;;;4.40;3.93;;;;;;;;;;4989312;28;20624;-54
2022/10/05 01:52:21;;;;;;;4.80;4.33;;;;;;;;;;4983675;28;20288;-55
2022/10/05 01:54:50;;;;;;;5.07;4.57;;;;;;;;;;4986981;28;20262;-53
2022/10/05 01:57:24;;;;;;;5.13;4.63;;;;;;;;;;4992207;28;20179;-56
2022/10/05 01:59:54;;;;;;;4.97;4.53;;;;;;;;;;4987919;28;20235;-53
2022/10/05 02:02:21;;;;;;;5.43;4.67;;;;;;;;;;4993550;28;20187;-54
2022/10/05 02:04:52;;;;;;;5.83;4.57;;;;;;;;;;4996461;28;20168;-53
2022/10/05 02:07:24;;;;;;;5.83;5.03;;;;;;;;;;4989325;28;20481;-54
2022/10/05 02:09:55;;;;;;;5.57;4.43;;;;;;;;;;4988522;28;20191;-54
2022/10/05 02:12:23;;;;;;;5.80;4.80;;;;;;;;;;4988907;28;20412;-54
2022/10/05 02:14:50;;;;;;;5.00;4.60;;;;;;;;;;4987978;28;20211;-54
2022/10/05 02:17:18;;;;;;;5.17;4.67;;;;;;;;;;4988346;28;20733;-55
2022/10/05 02:19:48;;;;;;;5.63;4.93;;;;;;;;;;4988346;28;20186;-55
2022/10/05 02:22:28;;;;;;;5.53;4.90;;;;;;;;;;4986332;28;20661;-54
2022/10/05 02:24:56;;;;;;;5.50;5.00;;;;;;;;;;4988207;28;20180;-54
2022/10/05 02:27:28;;;;;;;5.73;5.17;;;;;;;;;;4988024;28;20261;-55
2022/10/05 02:29:57;;;;;;;6.23;5.40;;;;;;;;;;4988568;28;20214;-54
2022/10/05 02:32:25;;;;;;;5.90;5.30;;;;;;;;;;4987436;28;20403;-53
2022/10/05 02:34:51;;;;;;;5.00;4.47;;;;;;;;;;4986754;28;20286;-53
2022/10/05 02:37:17;;;;;;;5.83;5.27;;;;;;;;;;4988133;28;20203;-54
2022/10/05 02:39:46;;;;;;;5.90;4.87;;;;;;;;;;4988671;28;20179;-53
2022/10/05 02:42:18;;;;;;;7.70;5.33;;;;;;;;;;4987849;28;20171;-54
2022/10/05 02:45:02;;;;;;;5.20;4.80;;;;;;;;;;4988495;28;20219;-54
2022/10/05 02:47:32;;;;;;;5.17;4.67;;;;;;;;;;4973071;28;20246;-54
2022/10/05 02:50:14;;;;;;;5.37;4.87;;;;;;;;;;4988070;28;20184;-53
2022/10/05 02:52:52;;;;;;;5.87;5.27;;;;;;;;;;4988644;28;20552;-53
2022/10/05 02:55:19;;;;;;;5.67;5.07;;;;;;;;;;4991834;28;20634;-54
2022/10/05 02:57:55;;;;;;;5.30;4.80;;;;;;;;;;4989896;28;20230;-54
2022/10/05 03:00:23;;;;;;;5.77;5.27;;;;;;;;;;4988901;28;20634;-54
2022/10/05 03:02:55;;;;;;;5.87;5.23;;;;;;;;;;4987292;28;20187;-55
2022/10/05 03:05:23;;;;;;;6.13;5.53;;;;;;;;;;4992736;28;20669;-53
2022/10/05 03:07:52;;;;;;;5.63;5.13;;;;;;;;;;5008761;28;20183;-55
2022/10/05 03:10:27;;;;;;;5.63;5.13;;;;;;;;;;4997077;28;20707;-54
2022/10/05 03:13:06;;;;;;;5.57;5.07;;;;;;;;;;5008555;28;20319;-54
2022/10/05 03:15:51;;;;;;;7.57;5.37;;;;;;;;;;5007506;28;20537;-53
2022/10/05 03:18:38;;;;;;;8.07;7.37;;;;;;;;;;4983722;28;20175;-54
2022/10/05 03:21:15;;;;;;;5.53;5.00;;;;;;;;;;4985560;28;20186;-53
2022/10/05 03:23:41;;;;;;;5.97;4.73;;;;;;;;;;4983288;28;20217;-54
2022/10/05 03:26:43;;;;;;;5.30;4.80;;;;;;;;;;4988419;28;20499;-54
2022/10/05 03:29:29;;;;;;;5.77;5.27;;;;;;;;;;4928146;29;20192;-54
2022/10/05 03:32:14;;;;;;;8.00;7.30;;;;;;;;;;4982854;28;20599;-53
2022/10/05 03:34:39;;;;;;;5.67;5.03;;;;;;;;;;4986138;28;20225;-54
2022/10/05 03:37:27;;;;;;;5.63;4.37;;;;;;;;;;4988433;28;20760;-54
2022/10/05 03:40:11;;;;;;;5.70;4.97;;;;;;;;;;4986512;28;20661;-53
2022/10/05 03:42:56;;;;;;;6.47;5.40;;;;;;;;;;5004120;28;20175;-53
2022/10/05 03:45:28;;;;;;;4.80;4.40;;;;;;;;;;4989649;28;20381;-53
2022/10/05 03:48:06;;;;;;;4.90;4.40;;;;;;;;;;4998103;28;20211;-53
2022/10/05 03:50:42;;;;;;;5.77;5.27;;;;;;;;;;4985194;28;20223;-54
2022/10/05 03:53:16;;;;;;;5.57;4.77;;;;;;;;;;4988726;28;20234;-53
2022/10/05 03:55:54;;;;;;;8.43;6.00;;;;;;;;;;4994764;28;20206;-53
2022/10/05 03:58:22;;;;;;;5.63;5.13;;;;;;;;;;4992802;28;20541;-53
2022/10/05 04:00:50;;;;;;;5.73;5.23;;;;;;;;;;4990096;28;20542;-53
2022/10/05 04:03:20;;;;;;;7.37;6.87;;;;;;;;;;4990888;28;20565;-55
2022/10/05 04:05:55;;;;;;;6.10;4.93;;;;;;;;;;4999046;28;20658;-53
2022/10/05 04:08:27;;;;;;;7.73;7.03;;;;;;;;;;4990763;28;20535;-54
2022/10/05 04:10:57;;;;;;;6.87;5.60;;;;;;;;;;4999799;28;20652;-53
2022/10/05 04:13:27;;;;;;;5.40;4.90;;;;;;;;;;5000787;28;20257;-52
2022/10/05 04:15:58;;;;;;;6.93;5.27;;;;;;;;;;4973045;28;20591;-53
2022/10/05 04:18:44;;;;;;;5.40;4.90;;;;;;;;;;4990195;28;20318;-54
2022/10/05 04:21:19;;;;;;;7.23;6.53;;;;;;;;;;4999078;28;20552;-54
2022/10/05 04:23:51;;;;;;;5.47;4.93;;;;;;;;;;4987754;28;20173;-54
2022/10/05 04:26:24;;;;;;;6.27;5.10;;;;;;;;;;4999022;28;20780;-53
2022/10/05 04:29:02;;;;;;;5.80;5.10;;;;;;;;;;5009842;28;20166;-54
2022/10/05 04:31:31;;;;;;;5.73;4.97;;;;;;;;;;5001782;28;20183;-54
2022/10/05 04:34:02;;;;;;;6.97;5.47;;;;;;;;;;4989673;28;20187;-53
2022/10/05 04:36:39;;;;;;;6.80;5.23;;;;;;;;;;4990709;28;20183;-54
2022/10/05 04:39:05;;;;;;;6.57;5.90;;;;;;;;;;4988926;28;20728;-54
2022/10/05 04:41:34;;;;;;;7.20;5.87;;;;;;;;;;4995420;28;20175;-54
2022/10/05 04:44:03;;;;;;;7.20;5.63;;;;;;;;;;4989633;28;20250;-53
2022/10/05 04:46:49;;;;;;;5.87;5.27;;;;;;;;;;4992500;28;20179;-53
2022/10/05 04:49:35;;;;;;;5.87;5.03;;;;;;;;;;4985753;28;20658;-54
2022/10/05 04:52:21;;;;;;;5.97;5.37;;;;;;;;;;4995606;28;20179;-55
2022/10/05 04:55:08;;;;;;;5.30;4.90;;;;;;;;;;4991187;28;20301;-54
2022/10/05 04:57:53;;;;;;;5.77;5.27;;;;;;;;;;4992888;28;20178;-53
2022/10/05 05:00:27;;;;;;;6.70;5.77;;;;;;;;;;4990494;28;20705;-53
2022/10/05 05:03:04;;;;;;;5.67;5.17;;;;;;;;;;4989437;28;20542;-54
2022/10/05 05:05:48;;;;;;;9.07;5.50;;;;;;;;;;4988137;28;20194;-55
2022/10/05 05:08:27;;;;;;;6.23;5.63;;;;;;;;;;4990384;28;20183;-54
2022/10/05 05:10:58;;;;;;;5.90;5.27;;;;;;;;;;4989234;28;20405;-54
2022/10/05 05:13:24;;;;;;;5.83;5.23;;;;;;;;;;4995873;28;20175;-54
2022/10/05 05:16:05;;;;;;;6.20;5.40;;;;;;;;;;4987179;28;20268;-56
2022/10/05 05:18:31;;;;;;;6.80;6.20;;;;;;;;;;4987462;28;20584;-55
2022/10/05 05:20:57;;;;;;;5.80;5.00;;;;;;;;;;4994167;28;20171;-54
2022/10/05 05:23:40;;;;;;;5.40;4.90;;;;;;;;;;4988589;28;20183;-54
2022/10/05 05:26:11;;;;;;;6.63;5.77;;;;;;;;;;4985546;28;20269;-54
2022/10/05 05:28:37;;;;;;;6.60;5.20;;;;;;;;;;4988262;28;20190;-53
2022/10/05 05:31:15;;;;;;;7.40;6.60;;;;;;;;;;4990629;28;20171;-53
2022/10/05 05:33:51;;;;;;;6.13;5.63;;;;;;;;;;4983579;28;20179;-55
2022/10/05 05:36:43;;;;;;;5.97;5.23;;;;;;;;;;4989660;28;20562;-54
2022/10/05 05:39:13;;;;;;;6.60;5.90;;;;;;;;;;4994725;28;20179;-53
2022/10/05 05:41:45;;;;;;;5.73;5.20;;;;;;;;;;4992636;28;20273;-55
2022/10/05 05:44:23;;;;;;;5.77;5.27;;;;;;;;;;4985811;28;20497;-53
2022/10/05 05:47:01;;;;;;;6.17;5.47;;;;;;;;;;4986368;28;20202;-52
2022/10/05 05:49:47;;;;;;;6.00;5.43;;;;;;;;;;4982865;28;20193;-55
2022/10/05 05:52:23;;;;;;;6.07;5.47;;;;;;;;;;4982707;28;20229;-55
2022/10/05 05:55:04;;;;;;;5.53;4.93;;;;;;;;;;4988663;28;20245;-54
2022/10/05 05:57:40;;;;;;;6.70;5.10;;;;;;;;;;4986414;28;20179;-55
2022/10/05 06:00:12;;;;;;;6.70;5.90;;;;;;;;;;4985679;28;20213;-54
2022/10/05 06:02:42;;;;;;;6.10;5.50;;;;;;;;;;4985770;28;20191;-54
2022/10/05 06:05:29;;;;;;;6.07;5.47;;;;;;;;;;4979246;28;20642;-54
2022/10/05 06:07:58;;;;;;;5.53;5.03;;;;;;;;;;4983093;28;20222;-54
2022/10/05 06:10:34;;;;;;;6.83;5.70;;;;;;;;;;4987674;28;20585;-53
2022/10/05 06:13:05;;;;;;;5.67;5.07;;;;;;;;;;4983492;28;20193;-54
2022/10/05 06:15:37;;;;;;;5.83;4.73;;;;;;;;;;4986700;28;20763;-54
2022/10/05 06:18:08;;;;;;;6.23;5.60;;;;;;;;;;4985533;28;20397;-54
2022/10/05 06:20:48;;;;;;;6.50;4.70;;;;;;;;;;4985928;28;20186;-55
2022/10/05 06:23:27;;;;;;;6.27;5.13;;;;;;;;;;4985744;28;20646;-55
2022/10/05 06:26:02;;;;;;;5.27;4.83;;;;;;;;;;4986379;28;20191;-55
2022/10/05 06:28:29;;;;;;;6.13;5.53;;;;;;;;;;4985373;28;20599;-56
2022/10/05 06:31:03;;;;;;;5.30;4.90;;;;;;;;;;4977730;28;20559;-54
2022/10/05 06:33:41;;;;;;;9.93;4.90;;;;;;;;;;4976184;28;20190;-54
2022/10/05 06:36:28;;;;;;;5.83;5.23;;;;;;;;;;4975980;28;20293;-56
2022/10/05 06:39:13;;;;;;;7.13;5.50;;;;;;;;;;4975864;28;20293;-54
2022/10/05 06:41:39;;;;;;;6.13;5.20;;;;;;;;;;4984645;28;20179;-53
2022/10/05 06:44:09;;;;;;;6.00;5.40;;;;;;;;;;4983864;28;20447;-55
2022/10/05 06:46:41;;;;;;;6.40;5.83;;;;;;;;;;4985801;28;20266;-54
2022/10/05 06:49:07;;;;;;;6.70;5.90;;;;;;;;;;4986598;28;20165;-54
2022/10/05 06:51:45;;;;;;;6.30;4.80;;;;;;;;;;4985421;28;20188;-54
2022/10/05 06:54:20;;;;;;;5.63;5.13;;;;;;;;;;4989601;28;20221;-55
2022/10/05 06:56:59;;;;;;;6.33;5.80;;;;;;;;;;4992484;28;20233;-53
2022/10/05 06:59:32;;;;;;;5.73;5.23;;;;;;;;;;4987209;28;20191;-54
2022/10/05 07:02:09;;;;;;;5.67;5.17;;;;;;;;;;4989131;28;20254;-54
2022/10/05 07:04:44;;;;;;;5.43;4.90;;;;;;;;;;4984235;28;20245;-54
2022/10/05 07:07:16;;;;;;;5.47;4.97;;;;;;;;;;4968906;28;20607;-53
2022/10/05 07:10:12;;;;;;;5.67;5.10;;;;;;;;;;4987515;28;20534;-53
2022/10/05 07:12:58;;;;;;;6.40;5.50;;;;;;;;;;4933030;28;20193;-54
2022/10/05 07:15:30;;;;;;;5.70;5.13;;;;;;;;;;4987604;28;20199;-54
2022/10/05 07:18:05;;;;;;;6.40;5.70;;;;;;;;;;4983677;28;20202;-54
2022/10/05 07:20:36;;;;;;;7.60;6.90;;;;;;;;;;4989442;28;20257;-54
2022/10/05 07:23:21;;;;;;;7.03;6.33;;;;;;;;;;4989032;28;20238;-54
2022/10/05 07:25:49;;;;;;;8.87;7.33;;;;;;;;;;4996916;28;20669;-54
2022/10/05 07:28:18;;;;;;;6.80;6.10;;;;;;;;;;4984686;28;20182;-52
2022/10/05 07:31:04;;;;;;;7.53;6.47;;;;;;;;;;4974340;28;20172;-55
2022/10/05 07:33:39;;;;;;;7.67;6.57;;;;;;;;;;4973586;28;20203;-51
2022/10/05 07:39:27;;;;;;;7.50;6.80;;;;;;;;;;4977814;28;20672;-52
2022/10/05 07:42:00;;;;;;;7.90;7.20;;;;;;;;;;4997945;28;20202;-52
2022/10/05 07:44:32;;;;;;;7.77;6.97;;;;;;;;;;4970616;28;20229;-51
2022/10/05 07:47:04;;;;;;;7.00;6.30;;;;;;;;;;4991833;28;20590;-51
2022/10/05 07:49:40;;;;;;;8.10;6.10;;;;;;;;;;4988450;28;20208;-51
2022/10/05 07:52:10;;;;;;;8.40;6.37;;;;;;;;;;4995192;28;20179;-59
2022/10/05 07:54:47;;;;;;;8.70;7.13;;;;;;;;;;4980062;28;20219;-65
2022/10/05 07:57:30;;;;;;;6.73;6.07;;;;;;;;;;4989032;28;20170;-61
2022/10/05 08:00:15;;;;;;;6.73;6.00;;;;;;;;;;4979969;28;20571;-62
2022/10/05 08:03:01;;;;;;;23.03;18.03;;;;;;;;;;4991627;28;20564;-58
2022/10/05 08:05:32;;;;;;;11.53;6.13;;;;;;;;;;4988903;28;20274;-58
2022/10/05 08:08:04;;;;;;;8.30;5.63;;;;;;;;;;4990265;28;20191;-58
2022/10/05 08:10:49;;;;;;;7.63;6.43;;;;;;;;;;4991458;28;20625;-58
2022/10/05 08:13:21;;;;;;;5.47;4.97;;;;;;;;;;4991592;28;20171;-59
2022/10/05 08:15:52;;;;;;;7.97;5.90;;;;;;;;;;4988761;28;20211;-58
2022/10/05 08:18:37;;;;;;;7.37;5.80;;;;;;;;;;4989090;28;20282;-59
2022/10/05 08:21:10;;;;;;;6.17;5.17;;;;;;;;;;4970736;28;20194;-58
2022/10/05 08:23:43;;;;;;;7.53;6.73;;;;;;;;;;4989178;28;20187;-59
2022/10/05 08:26:28;;;;;;;7.87;5.83;;;;;;;;;;4989594;28;20198;-58
2022/10/05 08:29:06;;;;;;;7.83;5.67;;;;;;;;;;5002832;28;20179;-60
2022/10/05 08:31:34;;;;;;;5.63;5.10;;;;;;;;;;5005752;28;20179;-60
2022/10/05 08:34:19;;;;;;;9.93;5.83;;;;;;;;;;5007507;28;20672;-62
2022/10/05 08:37:04;;;;;;;6.50;5.13;;;;;;;;;;4989702;28;20186;-57
2022/10/05 08:39:36;;;;;;;6.13;5.50;;;;;;;;;;4989003;28;20670;-59
2022/10/05 08:42:11;;;;;;;6.00;5.43;;;;;;;;;;5007613;28;20167;-59
2022/10/05 08:44:49;;;;;;;5.33;4.83;;;;;;;;;;5010544;28;20526;-59
2022/10/05 08:47:19;;;;;;;6.40;5.00;;;;;;;;;;4990693;28;20175;-59
2022/10/05 08:50:01;;;;;;;5.50;5.00;;;;;;;;;;4989446;28;20179;-61
2022/10/05 08:52:28;;;;;;;6.00;5.07;;;;;;;;;;4991022;28;20311;-59
2022/10/05 08:55:16;;;;;;;6.13;4.80;;;;;;;;;;4993558;28;20223;-59
2022/10/05 08:57:50;;;;;;;6.93;5.10;;;;;;;;;;4983852;28;20187;-59
2022/10/05 09:00:16;;;;;;;5.73;4.60;;;;;;;;;;4993846;28;20641;-61
2022/10/05 09:02:51;;;;;;;5.80;4.73;;;;;;;;;;4970944;28;20176;-59
2022/10/05 09:05:24;;;;;;;5.63;4.70;;;;;;;;;;4977059;28;20602;-59
2022/10/05 09:07:53;;;;;;;5.73;5.23;;;;;;;;;;4993143;28;20199;-59
2022/10/05 09:10:22;;;;;;;5.23;4.70;;;;;;;;;;4990655;28;20222;-59
2022/10/05 09:12:58;;;;;;;33.93;4.70;;;;;;;;;;5009066;28;20590;-59
2022/10/05 09:15:43;;;;;;;5.17;4.67;;;;;;;;;;4992540;28;20225;-59
2022/10/05 09:18:09;;;;;;;5.03;4.53;;;;;;;;;;5010263;28;20516;-59
2022/10/05 09:20:51;;;;;;;4.97;4.40;;;;;;;;;;5008009;28;20683;-60
2022/10/05 09:23:26;;;;;;;5.83;3.90;;;;;;;;;;5005869;28;20696;-60
2022/10/05 09:26:05;;;;;;;6.30;4.23;;;;;;;;;;4984239;28;20265;-58
2022/10/05 09:28:33;;;;;;;5.10;4.60;;;;;;;;;;4971374;28;20290;-58
2022/10/05 09:31:02;;;;;;;5.27;4.20;;;;;;;;;;4988409;28;20175;-59
2022/10/05 09:33:28;;;;;;;6.07;4.40;;;;;;;;;;4989719;28;20187;-59
2022/10/05 09:36:18;;;;;;;6.47;4.57;;;;;;;;;;4987384;28;20207;-59
2022/10/05 09:39:02;;;;;;;6.00;4.07;;;;;;;;;;4955924;28;20216;-58
2022/10/05 09:41:47;;;;;;;4.83;4.33;;;;;;;;;;4988428;28;20273;-59
2022/10/05 09:44:32;;;;;;;5.67;4.43;;;;;;;;;;4972020;28;20206;-59
2022/10/05 09:46:58;;;;;;;5.10;4.17;;;;;;;;;;4981110;28;20183;-58
2022/10/05 09:49:43;;;;;;;6.57;5.00;;;;;;;;;;4982315;28;20179;-59
2022/10/05 09:52:09;;;;;;;6.20;4.00;;;;;;;;;;4994369;28;20233;-60
2022/10/05 09:54:55;;;;;;;6.87;4.20;;;;;;;;;;4988615;28;20285;-60
2022/10/05 09:57:27;;;;;;;4.83;4.20;;;;;;;;;;4982118;28;20187;-58
2022/10/05 10:00:12;;;;;;;4.70;4.23;;;;;;;;;;4983802;28;20540;-57
2022/10/05 10:02:41;;;;;;;4.33;3.93;;;;;;;;;;4979839;28;20187;-58
2022/10/05 10:05:11;;;;;;;5.00;4.17;;;;;;;;;;4977143;28;20237;-57
2022/10/05 10:07:55;;;;;;;4.47;4.03;;;;;;;;;;4981741;28;20187;-57
2022/10/05 10:10:34;;;;;;;5.97;4.13;;;;;;;;;;4984865;28;20194;-57
2022/10/05 10:13:10;;;;;;;6.00;4.17;;;;;;;;;;4980957;28;20183;-57
2022/10/05 10:15:52;;;;;;;4.50;4.10;;;;;;;;;;4982216;28;20581;-57
2022/10/05 10:18:37;;;;;;;4.67;4.17;;;;;;;;;;4979035;28;20658;-57
2022/10/05 10:21:06;;;;;;;4.37;4.03;;;;;;;;;;4970168;28;20527;-57
2022/10/05 10:23:53;;;;;;;4.17;3.80;;;;;;;;;;4973244;28;20194;-57
2022/10/05 10:26:36;;;;;;;6.40;4.17;;;;;;;;;;4979287;28;20188;-58
2022/10/05 10:29:20;;;;;;;3.90;3.60;;;;;;;;;;4977104;28;20181;-57
2022/10/05 10:31:53;;;;;;;4.60;3.80;;;;;;;;;;4983833;28;20188;-57
2022/10/05 10:34:36;;;;;;;4.00;3.70;;;;;;;;;;4981365;28;20188;-58
2022/10/05 10:37:21;;;;;;;3.73;3.40;;;;;;;;;;4982735;28;20184;-58
2022/10/05 10:40:00;;;;;;;3.67;3.37;;;;;;;;;;4975819;28;20186;-58
2022/10/05 10:42:37;;;;;;;3.77;3.40;;;;;;;;;;4976294;28;20189;-57
2022/10/05 10:45:03;;;;;;;5.10;3.10;;;;;;;;;;4977243;28;20191;-57
2022/10/05 10:47:29;;;;;;;6.13;3.40;;;;;;;;;;4980667;28;20188;-59
2022/10/05 10:50:14;;;;;;;4.93;3.77;;;;;;;;;;4976516;28;20190;-58
2022/10/05 10:52:40;;;;;;;3.27;2.90;;;;;;;;;;4983455;28;20687;-57
2022/10/05 10:55:19;;;;;;;3.23;2.90;;;;;;;;;;4987312;28;20243;-57
2022/10/05 10:58:04;;;;;;;3.30;3.00;;;;;;;;;;4980514;28;20766;-57
2022/10/05 11:00:44;;;;;;;2.80;2.60;;;;;;;;;;4975656;28;20268;-56
2022/10/05 11:03:13;;;;;;;5.00;3.10;;;;;;;;;;4986426;28;20179;-57
2022/10/05 11:05:42;;;;;;;3.60;2.70;;;;;;;;;;4980641;28;20179;-57
2022/10/05 11:08:19;;;;;;;2.83;2.63;;;;;;;;;;4982478;28;20195;-57
2022/10/05 11:11:08;;;;;;;3.70;2.80;;;;;;;;;;4980227;28;20183;-57
2022/10/05 11:13:34;;;;;;;3.10;2.50;;;;;;;;;;4978632;28;20210;-57
2022/10/05 11:16:26;;;;;;;3.10;2.07;;;;;;;;;;4976596;28;20571;-57
2022/10/05 11:19:11;;;;;;;4.77;2.80;;;;;;;;;;4946514;28;20187;-57
2022/10/05 11:21:56;;;;;;;4.00;2.40;;;;;;;;;;4971913;28;20639;-57
2022/10/05 11:24:40;;;;;;;2.40;2.20;;;;;;;;;;4985356;28;20225;-56
2022/10/05 11:27:25;;;;;;;2.73;2.53;;;;;;;;;;4981736;28;20206;-57
2022/10/05 11:30:10;;;;;;;3.67;2.93;;;;;;;;;;4974981;28;20227;-57
2022/10/05 11:32:39;;;;;;;2.30;2.10;;;;;;;;;;4975819;28;20558;-58
2022/10/05 11:35:23;;;;;;;2.70;2.50;;;;;;;;;;4973732;28;20213;-56
2022/10/05 11:37:58;;;;;;;2.43;2.23;;;;;;;;;;4977749;28;20619;-58
2022/10/05 11:40:25;;;;;;;3.13;2.93;;;;;;;;;;4977946;28;20181;-58
2022/10/05 11:42:51;;;;;;;2.60;2.40;;;;;;;;;;4976837;28;20577;-58
2022/10/05 11:45:35;;;;;;;3.03;2.83;;;;;;;;;;4982358;28;20195;-58
2022/10/05 11:48:06;;;;;;;2.80;2.43;;;;;;;;;;4978811;28;20559;-58
2022/10/05 11:50:39;;;;;;;2.53;2.33;;;;;;;;;;4971383;28;20182;-58
2022/10/05 11:53:24;;;;;;;4.67;3.00;;;;;;;;;;4988264;28;20673;-58
2022/10/05 11:56:09;;;;;;;2.93;2.50;;;;;;;;;;4984968;28;20396;-58
2022/10/05 11:58:38;;;;;;;3.17;2.87;;;;;;;;;;4980896;28;20281;-59
2022/10/05 12:01:13;;;;;;;3.07;2.77;;;;;;;;;;4985762;28;20184;-58
2022/10/05 12:03:46;;;;;;;2.60;2.40;;;;;;;;;;4978679;28;20201;-59
2022/10/05 12:06:15;;;;;;;2.60;2.40;;;;;;;;;;4974925;28;20226;-59
2022/10/05 12:09:06;;;;;;;2.93;2.53;;;;;;;;;;4974257;28;20226;-58
2022/10/05 12:11:46;;;;;;;3.30;3.00;;;;;;;;;;4979927;28;20654;-59
2022/10/05 12:14:26;;;;;;;6.23;2.90;;;;;;;;;;4982082;28;20322;-59
2022/10/05 12:16:57;;;;;;;4.67;3.00;;;;;;;;;;4982605;28;20654;-58
2022/10/05 12:19:39;;;;;;;3.07;2.87;;;;;;;;;;4971966;28;20589;-57
2022/10/05 12:22:22;;;;;;;4.33;3.57;;;;;;;;;;4975062;28;20638;-57
2022/10/05 12:25:07;;;;;;;5.27;3.03;;;;;;;;;;4980886;28;20443;-59
2022/10/05 12:27:37;;;;;;;3.30;2.80;;;;;;;;;;4982562;28;20193;-57
2022/10/05 12:30:22;;;;;;;3.13;2.83;;;;;;;;;;4985949;28;20191;-58
2022/10/05 12:32:48;;;;;;;2.90;2.70;;;;;;;;;;4978799;28;20262;-58
2022/10/05 12:35:24;;;;;;;3.40;3.10;;;;;;;;;;4985922;28;20210;-57
2022/10/05 12:37:53;;;;;;;4.83;2.70;;;;;;;;;;4992740;28;20211;-57
2022/10/05 12:40:38;;;;;;;3.80;2.87;;;;;;;;;;4988598;28;20183;-57
2022/10/05 12:43:18;;;;;;;5.83;2.93;;;;;;;;;;4974898;28;20684;-57
2022/10/05 12:45:51;;;;;;;3.87;2.77;;;;;;;;;;4982144;28;20599;-57
2022/10/05 12:48:48;;;;;;;4.13;3.03;;;;;;;;;;4979608;28;20234;-57
2022/10/05 12:51:22;;;;;;;3.30;3.00;;;;;;;;;;4987589;28;20187;-57
2022/10/05 12:53:48;;;;;;;3.07;2.53;;;;;;;;;;4983000;28;20191;-57
2022/10/05 12:56:26;;;;;;;2.80;2.60;;;;;;;;;;4980455;28;20367;-57
2022/10/05 12:58:52;;;;;;;2.67;2.50;;;;;;;;;;4975666;28;20202;-57
2022/10/05 13:01:18;;;;;;;2.97;2.77;;;;;;;;;;4990787;28;20175;-57
2022/10/05 13:04:06;;;;;;;4.00;2.90;;;;;;;;;;4999467;28;20179;-57
2022/10/05 13:06:35;;;;;;;3.63;3.30;;;;;;;;;;4980128;28;20195;-57
2022/10/05 13:09:09;;;;;;;3.00;2.70;;;;;;;;;;5006584;28;20171;-57
2022/10/05 13:11:35;;;;;;;2.60;2.40;;;;;;;;;;4988226;28;20207;-59
2022/10/05 13:14:06;;;;;;;3.20;2.90;;;;;;;;;;5002153;28;20525;-60
2022/10/05 13:16:32;;;;;;;3.10;2.70;;;;;;;;;;4991166;28;20215;-59
2022/10/05 13:19:20;;;;;;;3.40;2.83;;;;;;;;;;4992316;28;20703;-59
2022/10/05 13:21:57;;;;;;;3.20;2.30;;;;;;;;;;4989097;28;20214;-59
2022/10/05 13:24:34;;;;;;;2.33;2.10;;;;;;;;;;4972988;28;20187;-58
2022/10/05 13:27:07;;;;;;;2.67;2.20;;;;;;;;;;4985420;28;20186;-59
2022/10/05 13:29:51;;;;;;;2.50;2.30;;;;;;;;;;5006784;28;20166;-58
2022/10/05 13:32:21;;;;;;;3.53;2.67;;;;;;;;;;4989640;28;20231;-60
2022/10/05 13:35:19;;;;;;;2.37;2.13;;;;;;;;;;4991071;28;20715;-59
2022/10/05 13:37:55;;;;;;;2.10;1.90;;;;;;;;;;5003428;28;20296;-59
2022/10/05 13:40:39;;;;;;;2.30;1.90;;;;;;;;;;4994512;28;20704;-58
2022/10/05 13:43:13;;;;;;;3.07;2.73;;;;;;;;;;5005497;28;20199;-58
2022/10/05 13:45:44;;;;;;;2.97;2.23;;;;;;;;;;5005176;28;20634;-59
2022/10/05 13:48:13;;;;;;;3.30;2.00;;;;;;;;;;4991616;28;20207;-59
2022/10/05 13:51:02;;;;;;;3.43;2.00;;;;;;;;;;4973957;28;20184;-59
2022/10/05 13:53:47;;;;;;;2.43;2.20;;;;;;;;;;4989271;28;20187;-59
2022/10/05 13:56:19;;;;;;;3.10;2.80;;;;;;;;;;4987376;28;20684;-59
2022/10/05 13:58:46;;;;;;;3.63;3.10;;;;;;;;;;4988564;28;20561;-59
2022/10/05 14:01:18;;;;;;;3.40;3.20;;;;;;;;;;4990443;28;20261;-59
2022/10/05 14:04:03;;;;;;;2.73;2.50;;;;;;;;;;4993549;28;20413;-59
2022/10/05 14:06:30;;;;;;;2.90;2.70;;;;;;;;;;4992240;28;20179;-58
2022/10/05 14:08:59;;;;;;;3.57;2.50;;;;;;;;;;4987706;28;20198;-58
2022/10/05 14:11:30;;;;;;;3.43;2.20;;;;;;;;;;5002825;28;20556;-57
2022/10/05 14:14:12;;;;;;;3.47;2.73;;;;;;;;;;4987322;28;20193;-58
2022/10/05 14:16:51;;;;;;;3.30;2.50;;;;;;;;;;4999622;28;20228;-58
2022/10/05 14:19:40;;;;;;;6.07;2.03;;;;;;;;;;4988267;28;20181;-57
2022/10/05 14:22:23;;;;;;;3.10;2.90;;;;;;;;;;4984604;28;20199;-57
2022/10/05 14:25:03;;;;;;;6.47;2.93;;;;;;;;;;5006992;28;20237;-57
2022/10/05 14:27:32;;;;;;;3.37;2.60;;;;;;;;;;4995831;28;20213;-57
2022/10/05 14:30:00;;;;;;;2.50;2.40;;;;;;;;;;5001707;28;20256;-56
2022/10/05 14:32:31;;;;;;;2.33;2.13;;;;;;;;;;4978899;28;20217;-56
2022/10/05 14:35:12;;;;;;;2.80;2.20;;;;;;;;;;4987314;28;20213;-58
2022/10/05 14:38:04;;;;;;;2.57;2.37;;;;;;;;;;4985151;28;20239;-58
2022/10/05 14:40:33;;;;;;;2.50;2.33;;;;;;;;;;4957449;28;20273;-58
2022/10/05 14:43:01;;;;;;;2.70;2.50;;;;;;;;;;4979214;28;20182;-59
2022/10/05 14:45:32;;;;;;;2.20;2.00;;;;;;;;;;4991780;28;20190;-58
2022/10/05 14:48:06;;;;;;;6.47;2.70;;;;;;;;;;4972351;28;20187;-58
2022/10/05 14:50:39;;;;;;;2.10;2.00;;;;;;;;;;4981587;28;20182;-58
2022/10/05 14:53:12;;;;;;;3.13;2.47;;;;;;;;;;4978224;28;20186;-57
2022/10/05 14:55:57;;;;;;;2.80;2.10;;;;;;;;;;4993063;28;20215;-58
2022/10/05 14:58:31;;;;;;;1.90;1.80;;;;;;;;;;4987960;28;20193;-58
2022/10/05 15:01:03;;;;;;;2.70;2.13;;;;;;;;;;4981402;28;20215;-59
2022/10/05 15:03:32;;;;;;;2.33;2.10;;;;;;;;;;4996857;28;20242;-57
2022/10/05 15:06:00;;;;;;;3.03;2.60;;;;;;;;;;4993041;28;20202;-57
2022/10/05 15:08:30;;;;;;;4.03;2.33;;;;;;;;;;4998351;28;20231;-56
2022/10/05 15:11:15;;;;;;;3.17;2.47;;;;;;;;;;5004224;28;20192;-57
2022/10/05 15:13:43;;;;;;;4.80;2.20;;;;;;;;;;4990201;28;20185;-58
2022/10/05 15:16:09;;;;;;;3.23;2.40;;;;;;;;;;4969265;28;20228;-57
2022/10/05 15:18:38;;;;;;;2.43;2.23;;;;;;;;;;4967436;28;20270;-58
2022/10/05 15:21:23;;;;;;;2.90;2.70;;;;;;;;;;4988288;28;20237;-58
2022/10/05 15:23:53;;;;;;;2.40;2.20;;;;;;;;;;4988982;28;20712;-58
2022/10/05 15:26:25;;;;;;;2.77;2.23;;;;;;;;;;4987380;28;20200;-58
2022/10/05 15:29:11;;;;;;;2.50;2.30;;;;;;;;;;4987708;28;20188;-58
2022/10/05 15:31:38;;;;;;;3.37;3.07;;;;;;;;;;4981368;28;20800;-57
2022/10/05 15:34:07;;;;;;;2.77;2.53;;;;;;;;;;4994367;28;20179;-58